Terminal Aerodrome Forecast
Issued by NWS Duluth, MN

Home | Current Version | Previous Version | Text Only | Print | Product List | Glossary On
Versions: 1 2 3 4 5 6 7 8 9 10 11 12 13 14 15 16 17 18 19 20
285
FTUS43 KDLH 161743
TAFDLH
TAF
KDLH 161743Z 1618/1718 13011KT P6SM SCT050 BKN150
     FM170300 16008KT P6SM BKN015
     FM170600 18007KT 4SM BR OVC007
     FM171000 20006KT 2SM BR OVC004
     FM171400 21008KT 6SM BR SCT004 BKN008
     FM171700 21008KT P6SM SCT008=

USA.gov is the U.S. government's official web portal to all federal, state and local government web resources and services.